sensor_id;sensor_type;location;lat;lon;timestamp;pressure;altitude;pressure_sealevel;temperature;humidity
45323;BME280;31382;50.200;8.674;2023-05-01T00:03:36;100435.94;;;15.20;48.94
45323;BME280;31382;50.200;8.674;2023-05-01T00:08:38;100435.06;;;15.06;49.36
45323;BME280;31382;50.200;8.674;2023-05-01T00:13:39;100426.31;;;14.98;49.42
45323;BME280;31382;50.200;8.674;2023-05-01T00:18:41;100421.72;;;14.92;49.57
45323;BME280;31382;50.200;8.674;2023-05-01T00:23:42;100411.44;;;14.80;49.92
45323;BME280;31382;50.200;8.674;2023-05-01T00:28:44;100408.53;;;14.75;50.06
45323;BME280;31382;50.200;8.674;2023-05-01T00:33:45;100408.91;;;14.65;50.12
45323;BME280;31382;50.200;8.674;2023-05-01T00:38:46;100397.56;;;14.48;50.52
45323;BME280;31382;50.200;8.674;2023-05-01T00:43:48;100393.31;;;14.39;50.99
45323;BME280;31382;50.200;8.674;2023-05-01T00:48:50;100396.19;;;14.31;51.24
45323;BME280;31382;50.200;8.674;2023-05-01T00:53:52;100393.31;;;14.33;51.14
45323;BME280;31382;50.200;8.674;2023-05-01T00:58:55;100386.81;;;14.27;51.46
45323;BME280;31382;50.200;8.674;2023-05-01T01:03:56;100374.53;;;14.24;51.29
45323;BME280;31382;50.200;8.674;2023-05-01T01:09:26;100366.63;;;14.23;51.72
45323;BME280;31382;50.200;8.674;2023-05-01T01:20:18;100355.81;;;14.23;51.79
45323;BME280;31382;50.200;8.674;2023-05-01T01:25:36;100350.81;;;14.20;52.07
45323;BME280;31382;50.200;8.674;2023-05-01T01:36:01;100342.44;;;14.08;52.46
45323;BME280;31382;50.200;8.674;2023-05-01T01:41:30;100344.00;;;13.96;52.79
45323;BME280;31382;50.200;8.674;2023-05-01T01:46:36;100342.06;;;13.83;52.76
45323;BME280;31382;50.200;8.674;2023-05-01T01:51:40;100331.81;;;13.78;53.12
45323;BME280;31382;50.200;8.674;2023-05-01T01:56:42;100324.22;;;13.60;53.17
45323;BME280;31382;50.200;8.674;2023-05-01T02:01:46;100327.34;;;13.57;53.27
45323;BME280;31382;50.200;8.674;2023-05-01T02:06:50;100322.31;;;13.54;53.70
45323;BME280;31382;50.200;8.674;2023-05-01T02:11:53;100320.41;;;13.48;53.46
45323;BME280;31382;50.200;8.674;2023-05-01T02:16:58;100326.41;;;13.43;53.73
45323;BME280;31382;50.200;8.674;2023-05-01T02:22:00;100322.97;;;13.35;54.33
45323;BME280;31382;50.200;8.674;2023-05-01T02:27:06;100325.59;;;13.28;54.50
45323;BME280;31382;50.200;8.674;2023-05-01T02:32:09;100318.03;;;13.17;54.34
45323;BME280;31382;50.200;8.674;2023-05-01T02:37:11;100322.72;;;13.08;54.74
45323;BME280;31382;50.200;8.674;2023-05-01T02:42:14;100311.88;;;13.01;55.34
45323;BME280;31382;50.200;8.674;2023-05-01T02:47:19;100308.84;;;12.89;55.48
45323;BME280;31382;50.200;8.674;2023-05-01T02:52:21;100298.81;;;12.83;55.77
45323;BME280;31382;50.200;8.674;2023-05-01T02:57:23;100302.56;;;12.82;55.46
45323;BME280;31382;50.200;8.674;2023-05-01T03:02:25;100295.09;;;12.84;55.63
45323;BME280;31382;50.200;8.674;2023-05-01T03:07:26;100299.03;;;12.82;55.91
45323;BME280;31382;50.200;8.674;2023-05-01T03:12:35;100295.28;;;12.83;55.89
45323;BME280;31382;50.200;8.674;2023-05-01T03:17:36;100288.88;;;12.84;56.23
45323;BME280;31382;50.200;8.674;2023-05-01T03:22:38;100285.91;;;12.79;56.25
45323;BME280;31382;50.200;8.674;2023-05-01T03:27:40;100291.88;;;12.74;56.42
45323;BME280;31382;50.200;8.674;2023-05-01T03:32:41;100283.66;;;12.82;56.47
45323;BME280;31382;50.200;8.674;2023-05-01T03:37:43;100280.56;;;12.85;56.14
45323;BME280;31382;50.200;8.674;2023-05-01T03:42:44;100275.44;;;12.90;56.53
45323;BME280;31382;50.200;8.674;2023-05-01T03:47:45;100271.47;;;12.86;56.64
45323;BME280;31382;50.200;8.674;2023-05-01T03:52:47;100282.25;;;12.86;57.04
45323;BME280;31382;50.200;8.674;2023-05-01T03:57:48;100275.44;;;12.90;57.05
45323;BME280;31382;50.200;8.674;2023-05-01T04:02:50;100266.13;;;12.93;56.60
45323;BME280;31382;50.200;8.674;2023-05-01T04:07:51;100273.06;;;12.81;56.92
45323;BME280;31382;50.200;8.674;2023-05-01T04:12:53;100265.94;;;12.73;57.20
45323;BME280;31382;50.200;8.674;2023-05-01T04:17:54;100273.56;;;12.69;57.22
45323;BME280;31382;50.200;8.674;2023-05-01T04:22:56;100281.41;;;12.64;56.92
45323;BME280;31382;50.200;8.674;2023-05-01T04:27:58;100277.50;;;12.67;57.22
45323;BME280;31382;50.200;8.674;2023-05-01T04:32:59;100273.31;;;12.64;56.86
45323;BME280;31382;50.200;8.674;2023-05-01T04:38:02;100276.31;;;12.55;57.59
45323;BME280;31382;50.200;8.674;2023-05-01T04:43:03;100280.09;;;12.39;57.48
45323;BME280;31382;50.200;8.674;2023-05-01T04:48:05;100275.25;;;12.34;57.48
45323;BME280;31382;50.200;8.674;2023-05-01T04:53:06;100280.63;;;12.34;57.45
45323;BME280;31382;50.200;8.674;2023-05-01T04:58:08;100269.22;;;12.32;57.38
45323;BME280;31382;50.200;8.674;2023-05-01T05:03:10;100282.25;;;12.28;57.94
45323;BME280;31382;50.200;8.674;2023-05-01T05:08:11;100277.22;;;12.40;57.73
45323;BME280;31382;50.200;8.674;2023-05-01T05:13:13;100274.13;;;12.43;57.59
45323;BME280;31382;50.200;8.674;2023-05-01T05:18:14;100268.19;;;12.48;57.30
45323;BME280;31382;50.200;8.674;2023-05-01T05:23:15;100269.53;;;12.59;57.39
45323;BME280;31382;50.200;8.674;2023-05-01T05:28:17;100269.53;;;12.59;57.50
45323;BME280;31382;50.200;8.674;2023-05-01T05:33:18;100270.03;;;12.69;56.85
45323;BME280;31382;50.200;8.674;2023-05-01T05:38:20;100270.78;;;12.78;56.86
45323;BME280;31382;50.200;8.674;2023-05-01T05:43:21;100272.75;;;12.90;56.63
45323;BME280;31382;50.200;8.674;2023-05-01T05:48:26;100266.13;;;12.93;56.73
45323;BME280;31382;50.200;8.674;2023-05-01T05:53:28;100258.63;;;12.88;57.37
45323;BME280;31382;50.200;8.674;2023-05-01T05:58:29;100253.34;;;13.02;57.11
45323;BME280;31382;50.200;8.674;2023-05-01T06:03:31;100258.50;;;13.25;56.80
45323;BME280;31382;50.200;8.674;2023-05-01T06:08:33;100259.06;;;13.42;56.87
45323;BME280;31382;50.200;8.674;2023-05-01T06:13:36;100261.75;;;13.70;56.30
45323;BME280;31382;50.200;8.674;2023-05-01T06:18:37;100252.13;;;13.96;55.91
45323;BME280;31382;50.200;8.674;2023-05-01T06:23:39;100234.56;;;14.20;55.66
45323;BME280;31382;50.200;8.674;2023-05-01T06:28:40;100235.03;;;14.43;54.99
45323;BME280;31382;50.200;8.674;2023-05-01T06:33:42;100232.63;;;14.68;54.01
45323;BME280;31382;50.200;8.674;2023-05-01T06:38:43;100231.00;;;15.01;53.41
45323;BME280;31382;50.200;8.674;2023-05-01T06:43:48;100226.41;;;15.15;52.91
45323;BME280;31382;50.200;8.674;2023-05-01T06:48:50;100230.13;;;15.34;52.36
45323;BME280;31382;50.200;8.674;2023-05-01T06:53:51;100232.22;;;15.38;51.98
45323;BME280;31382;50.200;8.674;2023-05-01T06:58:53;100233.84;;;15.59;51.24
45323;BME280;31382;50.200;8.674;2023-05-01T07:03:54;100230.28;;;15.79;50.60
45323;BME280;31382;50.200;8.674;2023-05-01T07:08:55;100223.38;;;15.83;50.69
45323;BME280;31382;50.200;8.674;2023-05-01T07:13:57;100218.13;;;15.95;50.15
45323;BME280;31382;50.200;8.674;2023-05-01T07:18:58;100209.78;;;15.96;50.49
45323;BME280;31382;50.200;8.674;2023-05-01T07:23:59;100220.34;;;16.11;50.17
45323;BME280;31382;50.200;8.674;2023-05-01T07:29:01;100208.75;;;16.36;49.71
45323;BME280;31382;50.200;8.674;2023-05-01T07:34:03;100207.59;;;16.57;49.03
45323;BME280;31382;50.200;8.674;2023-05-01T07:39:04;100199.88;;;16.85;48.68
45323;BME280;31382;50.200;8.674;2023-05-01T07:44:06;100212.38;;;17.18;48.03
45323;BME280;31382;50.200;8.674;2023-05-01T07:49:08;100204.41;;;17.42;47.49
45323;BME280;31382;50.200;8.674;2023-05-01T07:54:09;100203.50;;;17.67;46.40
45323;BME280;31382;50.200;8.674;2023-05-01T07:59:11;100205.41;;;17.84;45.88
45323;BME280;31382;50.200;8.674;2023-05-01T08:04:12;100210.75;;;18.10;45.33
45323;BME280;31382;50.200;8.674;2023-05-01T08:09:14;100199.22;;;18.26;44.65
45323;BME280;31382;50.200;8.674;2023-05-01T08:14:16;100206.16;;;18.40;43.50
45323;BME280;31382;50.200;8.674;2023-05-01T08:19:18;100201.59;;;18.22;43.18
45323;BME280;31382;50.200;8.674;2023-05-01T08:24:19;100193.47;;;18.34;43.04
45323;BME280;31382;50.200;8.674;2023-05-01T08:29:21;100197.00;;;18.65;42.41
45323;BME280;31382;50.200;8.674;2023-05-01T08:34:22;100203.25;;;18.84;41.71
45323;BME280;31382;50.200;8.674;2023-05-01T08:39:24;100190.31;;;18.91;41.60
45323;BME280;31382;50.200;8.674;2023-05-01T08:44:26;100187.25;;;18.99;41.40
45323;BME280;31382;50.200;8.674;2023-05-01T08:49:31;100190.94;;;19.05;41.14
45323;BME280;31382;50.200;8.674;2023-05-01T08:54:35;100186.66;;;19.33;41.00
45323;BME280;31382;50.200;8.674;2023-05-01T08:59:37;100180.63;;;19.31;40.27
45323;BME280;31382;50.200;8.674;2023-05-01T09:04:40;100182.88;;;19.22;40.37
45323;BME280;31382;50.200;8.674;2023-05-01T09:09:42;100176.13;;;19.36;40.33
45323;BME280;31382;50.200;8.674;2023-05-01T09:14:43;100179.88;;;19.71;39.83
45323;BME280;31382;50.200;8.674;2023-05-01T09:19:46;100179.84;;;19.83;39.47
45323;BME280;31382;50.200;8.674;2023-05-01T09:24:48;100186.00;;;19.90;39.61
45323;BME280;31382;50.200;8.674;2023-05-01T09:29:49;100178.34;;;20.15;39.31
45323;BME280;31382;50.200;8.674;2023-05-01T09:34:51;100180.72;;;20.12;38.61
45323;BME280;31382;50.200;8.674;2023-05-01T09:40:07;100177.16;;;20.11;38.46
45323;BME280;31382;50.200;8.674;2023-05-01T09:45:12;100170.16;;;20.15;38.65
45323;BME280;31382;50.200;8.674;2023-05-01T09:50:31;100164.78;;;20.20;38.32
45323;BME280;31382;50.200;8.674;2023-05-01T09:55:33;100164.34;;;20.12;38.72
45323;BME280;31382;50.200;8.674;2023-05-01T10:00:46;100153.38;;;19.95;38.94
45323;BME280;31382;50.200;8.674;2023-05-01T10:05:48;100150.78;;;19.88;38.93
45323;BME280;31382;50.200;8.674;2023-05-01T10:11:01;100168.97;;;19.71;39.03
45323;BME280;31382;50.200;8.674;2023-05-01T10:16:05;100149.63;;;19.60;39.25
45323;BME280;31382;50.200;8.674;2023-05-01T10:21:08;100148.03;;;19.48;39.32
45323;BME280;31382;50.200;8.674;2023-05-01T10:26:12;100145.81;;;19.85;39.45
45323;BME280;31382;50.200;8.674;2023-05-01T10:31:15;100142.44;;;20.24;39.41
45323;BME280;31382;50.200;8.674;2023-05-01T10:36:20;100139.06;;;20.62;38.59
45323;BME280;31382;50.200;8.674;2023-05-01T10:46:58;100140.13;;;20.61;38.67
45323;BME280;31382;50.200;8.674;2023-05-01T10:52:00;100136.50;;;20.89;38.38
45323;BME280;31382;50.200;8.674;2023-05-01T10:57:04;100126.16;;;21.30;37.91
45323;BME280;31382;50.200;8.674;2023-05-01T11:02:20;100118.28;;;21.78;36.96
45323;BME280;31382;50.200;8.674;2023-05-01T11:07:22;100110.50;;;22.19;36.65
45323;BME280;31382;50.200;8.674;2023-05-01T11:12:49;100101.50;;;22.83;35.25
45323;BME280;31382;50.200;8.674;2023-05-01T11:17:51;100096.88;;;24.10;33.25
45323;BME280;31382;50.200;8.674;2023-05-01T11:22:55;100099.03;;;25.36;31.24
45323;BME280;31382;50.200;8.674;2023-05-01T11:27:59;100085.16;;;26.46;29.47
45323;BME280;31382;50.200;8.674;2023-05-01T11:33:01;100084.56;;;27.61;27.91
45323;BME280;31382;50.200;8.674;2023-05-01T11:38:02;100091.28;;;28.82;26.86
45323;BME280;31382;50.200;8.674;2023-05-01T11:43:05;100083.41;;;29.87;25.66
45323;BME280;31382;50.200;8.674;2023-05-01T11:48:13;100072.41;;;30.32;24.77
45323;BME280;31382;50.200;8.674;2023-05-01T11:53:16;100071.81;;;30.97;24.25
45323;BME280;31382;50.200;8.674;2023-05-01T11:58:29;100066.66;;;31.62;23.45
45323;BME280;31382;50.200;8.674;2023-05-01T12:03:40;100057.72;;;31.34;22.98
45323;BME280;31382;50.200;8.674;2023-05-01T12:08:44;100055.53;;;31.05;23.18
45323;BME280;31382;50.200;8.674;2023-05-01T12:13:47;100066.22;;;30.21;23.45
45323;BME280;31382;50.200;8.674;2023-05-01T12:18:50;100071.13;;;30.01;23.31
45323;BME280;31382;50.200;8.674;2023-05-01T12:23:53;100070.16;;;29.70;23.49
45323;BME280;31382;50.200;8.674;2023-05-01T12:29:04;100062.84;;;29.37;23.00
45323;BME280;31382;50.200;8.674;2023-05-01T12:34:06;100066.03;;;29.17;23.11
45323;BME280;31382;50.200;8.674;2023-05-01T12:39:09;100060.34;;;28.94;23.21
45323;BME280;31382;50.200;8.674;2023-05-01T12:49:20;100058.53;;;29.31;23.67
45323;BME280;31382;50.200;8.674;2023-05-01T12:54:41;100052.97;;;29.03;23.33
45323;BME280;31382;50.200;8.674;2023-05-01T12:59:44;100050.25;;;28.57;24.07
45323;BME280;31382;50.200;8.674;2023-05-01T13:04:48;100056.59;;;28.57;23.81
45323;BME280;31382;50.200;8.674;2023-05-01T13:09:57;100056.47;;;28.29;23.61
45323;BME280;31382;50.200;8.674;2023-05-01T13:14:59;100050.53;;;27.84;23.84
45323;BME280;31382;50.200;8.674;2023-05-01T13:20:03;100048.47;;;27.33;24.49
45323;BME280;31382;50.200;8.674;2023-05-01T13:25:14;100049.81;;;26.58;25.24
45323;BME280;31382;50.200;8.674;2023-05-01T13:30:19;100033.22;;;26.63;25.27
45323;BME280;31382;50.200;8.674;2023-05-01T13:35:23;100037.06;;;26.33;25.25
45323;BME280;31382;50.200;8.674;2023-05-01T13:40:26;100031.84;;;25.97;26.09
45323;BME280;31382;50.200;8.674;2023-05-01T13:45:27;100035.69;;;25.46;26.65
45323;BME280;31382;50.200;8.674;2023-05-01T13:50:29;100037.75;;;25.00;27.01
45323;BME280;31382;50.200;8.674;2023-05-01T13:55:30;100038.38;;;24.66;27.27
45323;BME280;31382;50.200;8.674;2023-05-01T14:00:32;100041.16;;;24.35;27.77
45323;BME280;31382;50.200;8.674;2023-05-01T14:05:35;100044.41;;;23.91;27.84
45323;BME280;31382;50.200;8.674;2023-05-01T14:10:37;100043.75;;;23.63;28.09
45323;BME280;31382;50.200;8.674;2023-05-01T14:15:38;100039.03;;;23.38;28.79
45323;BME280;31382;50.200;8.674;2023-05-01T14:20:44;100036.75;;;23.14;29.78
45323;BME280;31382;50.200;8.674;2023-05-01T14:25:48;100030.72;;;23.17;30.00
45323;BME280;31382;50.200;8.674;2023-05-01T14:30:49;100031.84;;;23.27;29.91
45323;BME280;31382;50.200;8.674;2023-05-01T14:35:52;100012.19;;;23.50;30.07
45323;BME280;31382;50.200;8.674;2023-05-01T14:40:53;100017.69;;;23.61;30.29
45323;BME280;31382;50.200;8.674;2023-05-01T14:45:55;100018.78;;;23.60;30.42
45323;BME280;31382;50.200;8.674;2023-05-01T14:50:57;100021.50;;;23.60;30.32
45323;BME280;31382;50.200;8.674;2023-05-01T14:55:59;100022.56;;;23.43;29.82
45323;BME280;31382;50.200;8.674;2023-05-01T15:01:01;100028.03;;;23.33;29.71
45323;BME280;31382;50.200;8.674;2023-05-01T15:06:02;100026.63;;;23.25;30.09
45323;BME280;31382;50.200;8.674;2023-05-01T15:11:04;100030.47;;;23.29;30.08
45323;BME280;31382;50.200;8.674;2023-05-01T15:16:06;100026.34;;;23.16;30.17
45323;BME280;31382;50.200;8.674;2023-05-01T15:21:08;100019.44;;;23.09;30.55
45323;BME280;31382;50.200;8.674;2023-05-01T15:26:10;100020.28;;;23.20;30.54
45323;BME280;31382;50.200;8.674;2023-05-01T15:31:11;100017.34;;;23.42;29.90
45323;BME280;31382;50.200;8.674;2023-05-01T15:36:13;100020.16;;;23.52;29.63
45323;BME280;31382;50.200;8.674;2023-05-01T15:41:14;100019.63;;;23.60;29.77
45323;BME280;31382;50.200;8.674;2023-05-01T15:46:19;100022.03;;;23.51;29.44
45323;BME280;31382;50.200;8.674;2023-05-01T15:51:23;100019.06;;;23.58;29.09
45323;BME280;31382;50.200;8.674;2023-05-01T15:56:26;100023.00;;;23.88;29.24
45323;BME280;31382;50.200;8.674;2023-05-01T16:01:30;100012.28;;;24.63;29.05
45323;BME280;31382;50.200;8.674;2023-05-01T16:06:33;100014.34;;;25.12;28.21
45323;BME280;31382;50.200;8.674;2023-05-01T16:11:35;100012.13;;;25.25;28.06
45323;BME280;31382;50.200;8.674;2023-05-01T16:16:39;100016.16;;;25.43;27.84
45323;BME280;31382;50.200;8.674;2023-05-01T16:21:41;100027.50;;;25.21;28.52
45323;BME280;31382;50.200;8.674;2023-05-01T16:26:43;100017.44;;;24.85;28.60
45323;BME280;31382;50.200;8.674;2023-05-01T16:31:44;100019.72;;;24.58;28.66
45323;BME280;31382;50.200;8.674;2023-05-01T16:36:47;100021.38;;;24.53;29.05
45323;BME280;31382;50.200;8.674;2023-05-01T16:41:50;100031.00;;;24.51;29.07
45323;BME280;31382;50.200;8.674;2023-05-01T16:46:56;100030.44;;;24.49;28.80
45323;BME280;31382;50.200;8.674;2023-05-01T16:52:01;100037.81;;;23.87;29.51
45323;BME280;31382;50.200;8.674;2023-05-01T16:57:04;100040.84;;;23.95;29.88
45323;BME280;31382;50.200;8.674;2023-05-01T17:02:06;100041.38;;;23.82;29.66
45323;BME280;31382;50.200;8.674;2023-05-01T17:07:08;100042.59;;;23.44;29.92
45323;BME280;31382;50.200;8.674;2023-05-01T17:12:09;100041.38;;;23.14;30.58
45323;BME280;31382;50.200;8.674;2023-05-01T17:17:11;100041.09;;;23.10;30.28
45323;BME280;31382;50.200;8.674;2023-05-01T17:22:12;100050.69;;;23.08;30.59
45323;BME280;31382;50.200;8.674;2023-05-01T17:27:14;100057.88;;;22.76;30.83
45323;BME280;31382;50.200;8.674;2023-05-01T17:37:36;100066.31;;;22.32;31.54
45323;BME280;31382;50.200;8.674;2023-05-01T17:42:40;100062.28;;;22.13;31.64
45323;BME280;31382;50.200;8.674;2023-05-01T17:47:42;100065.38;;;21.94;31.95
45323;BME280;31382;50.200;8.674;2023-05-01T17:52:45;100061.34;;;21.75;32.39
45323;BME280;31382;50.200;8.674;2023-05-01T17:57:46;100077.28;;;21.56;32.69
45323;BME280;31382;50.200;8.674;2023-05-01T18:02:48;100074.81;;;21.54;33.20
45323;BME280;31382;50.200;8.674;2023-05-01T18:07:49;100080.63;;;21.41;32.92
45323;BME280;31382;50.200;8.674;2023-05-01T18:12:51;100089.81;;;21.13;33.73
45323;BME280;31382;50.200;8.674;2023-05-01T18:17:52;100085.22;;;20.96;33.75
45323;BME280;31382;50.200;8.674;2023-05-01T18:22:54;100089.63;;;20.80;34.40
45323;BME280;31382;50.200;8.674;2023-05-01T18:27:55;100089.16;;;20.67;35.15
45323;BME280;31382;50.200;8.674;2023-05-01T18:32:57;100090.28;;;20.54;35.22
45323;BME280;31382;50.200;8.674;2023-05-01T18:37:59;100090.09;;;20.44;35.82
45323;BME280;31382;50.200;8.674;2023-05-01T18:43:00;100102.66;;;20.28;36.04
45323;BME280;31382;50.200;8.674;2023-05-01T18:48:03;100106.94;;;20.07;36.90
45323;BME280;31382;50.200;8.674;2023-05-01T18:53:05;100114.09;;;19.96;37.68
45323;BME280;31382;50.200;8.674;2023-05-01T18:58:06;100131.09;;;19.86;38.41
45323;BME280;31382;50.200;8.674;2023-05-01T19:03:08;100139.81;;;19.71;38.80
45323;BME280;31382;50.200;8.674;2023-05-01T19:08:09;100149.91;;;19.59;39.34
45323;BME280;31382;50.200;8.674;2023-05-01T19:13:11;100160.00;;;19.35;39.83
45323;BME280;31382;50.200;8.674;2023-05-01T19:18:12;100167.25;;;19.17;39.99
45323;BME280;31382;50.200;8.674;2023-05-01T19:23:16;100179.22;;;19.05;40.25
45323;BME280;31382;50.200;8.674;2023-05-01T19:28:17;100180.25;;;18.80;41.03
45323;BME280;31382;50.200;8.674;2023-05-01T19:33:19;100195.25;;;18.71;40.97
45323;BME280;31382;50.200;8.674;2023-05-01T19:38:20;100195.44;;;18.57;41.35
45323;BME280;31382;50.200;8.674;2023-05-01T19:43:22;100207.72;;;18.48;41.57
45323;BME280;31382;50.200;8.674;2023-05-01T19:48:23;100210.88;;;18.33;42.05
45323;BME280;31382;50.200;8.674;2023-05-01T19:53:25;100219.63;;;18.35;42.43
45323;BME280;31382;50.200;8.674;2023-05-01T19:58:28;100230.47;;;18.23;42.93
45323;BME280;31382;50.200;8.674;2023-05-01T20:03:30;100226.88;;;18.11;43.68
45323;BME280;31382;50.200;8.674;2023-05-01T20:08:32;100235.09;;;18.04;43.93
45323;BME280;31382;50.200;8.674;2023-05-01T20:13:34;100237.69;;;17.99;43.99
45323;BME280;31382;50.200;8.674;2023-05-01T20:18:37;100244.44;;;18.09;43.73
45323;BME280;31382;50.200;8.674;2023-05-01T20:23:38;100255.44;;;18.02;43.73
45323;BME280;31382;50.200;8.674;2023-05-01T20:28:40;100254.91;;;17.93;44.07
45323;BME280;31382;50.200;8.674;2023-05-01T20:33:41;100263.09;;;17.68;44.96
45323;BME280;31382;50.200;8.674;2023-05-01T20:38:43;100264.66;;;17.57;45.30
45323;BME280;31382;50.200;8.674;2023-05-01T20:43:46;100267.94;;;17.66;45.13
45323;BME280;31382;50.200;8.674;2023-05-01T20:48:48;100271.75;;;17.58;45.45
45323;BME280;31382;50.200;8.674;2023-05-01T20:53:49;100268.59;;;17.61;45.37
45323;BME280;31382;50.200;8.674;2023-05-01T20:58:51;100275.47;;;17.64;45.22
45323;BME280;31382;50.200;8.674;2023-05-01T21:03:53;100272.19;;;17.55;45.45
45323;BME280;31382;50.200;8.674;2023-05-01T21:08:58;100270.25;;;17.62;45.17
45323;BME280;31382;50.200;8.674;2023-05-01T21:14:00;100277.41;;;17.57;45.42
45323;BME280;31382;50.200;8.674;2023-05-01T21:19:02;100276.41;;;17.51;45.31
45323;BME280;31382;50.200;8.674;2023-05-01T21:24:06;100285.34;;;17.58;45.19
45323;BME280;31382;50.200;8.674;2023-05-01T21:29:08;100281.41;;;17.54;45.33
45323;BME280;31382;50.200;8.674;2023-05-01T21:34:10;100282.31;;;17.48;45.43
45323;BME280;31382;50.200;8.674;2023-05-01T21:39:11;100288.66;;;17.42;45.33
45323;BME280;31382;50.200;8.674;2023-05-01T21:44:13;100290.28;;;17.43;45.59
45323;BME280;31382;50.200;8.674;2023-05-01T21:49:14;100292.28;;;17.54;45.25
45323;BME280;31382;50.200;8.674;2023-05-01T21:54:18;100301.16;;;17.43;45.38
45323;BME280;31382;50.200;8.674;2023-05-01T21:59:21;100304.09;;;17.41;45.62
45323;BME280;31382;50.200;8.674;2023-05-01T22:04:23;100302.28;;;17.35;45.61
45323;BME280;31382;50.200;8.674;2023-05-01T22:09:24;100304.78;;;17.37;45.42
45323;BME280;31382;50.200;8.674;2023-05-01T22:14:26;100315.66;;;17.37;45.39
45323;BME280;31382;50.200;8.674;2023-05-01T22:19:46;100317.31;;;17.38;45.42
45323;BME280;31382;50.200;8.674;2023-05-01T22:24:48;100314.81;;;17.36;45.29
45323;BME280;31382;50.200;8.674;2023-05-01T22:29:49;100323.59;;;17.38;45.39
45323;BME280;31382;50.200;8.674;2023-05-01T22:34:50;100320.25;;;17.36;45.65
45323;BME280;31382;50.200;8.674;2023-05-01T22:39:52;100329.84;;;17.39;45.58
45323;BME280;31382;50.200;8.674;2023-05-01T22:44:54;100341.16;;;17.36;45.60
45323;BME280;31382;50.200;8.674;2023-05-01T22:49:55;100343.53;;;17.25;46.15
45323;BME280;31382;50.200;8.674;2023-05-01T22:54:56;100345.53;;;17.37;45.97
45323;BME280;31382;50.200;8.674;2023-05-01T22:59:58;100352.28;;;17.28;46.09
45323;BME280;31382;50.200;8.674;2023-05-01T23:05:00;100354.25;;;17.14;46.33
45323;BME280;31382;50.200;8.674;2023-05-01T23:10:02;100354.38;;;17.00;47.21
45323;BME280;31382;50.200;8.674;2023-05-01T23:15:07;100365.59;;;17.04;47.24
45323;BME280;31382;50.200;8.674;2023-05-01T23:20:12;100367.69;;;17.02;47.32
45323;BME280;31382;50.200;8.674;2023-05-01T23:25:20;100370.94;;;16.85;47.86
45323;BME280;31382;50.200;8.674;2023-05-01T23:30:23;100367.22;;;16.73;48.68
45323;BME280;31382;50.200;8.674;2023-05-01T23:35:24;100369.50;;;16.83;48.50
45323;BME280;31382;50.200;8.674;2023-05-01T23:40:26;100372.03;;;16.71;48.84
45323;BME280;31382;50.200;8.674;2023-05-01T23:45:27;100373.72;;;16.65;49.22
45323;BME280;31382;50.200;8.674;2023-05-01T23:50:29;100371.22;;;16.64;49.24
45323;BME280;31382;50.200;8.674;2023-05-01T23:55:30;100375.41;;;16.60;49.28
